createdAt,value
2022-08-07T04:00:35.612Z,79.54
2022-08-07T04:05:40.391Z,80.36
2022-08-07T04:10:35.460Z,80.05
2022-08-07T04:15:34.981Z,79.54
2022-08-07T04:20:35.106Z,79.75
2022-08-07T04:25:39.016Z,79.14
2022-08-07T04:30:39.451Z,79.24
2022-08-07T04:35:35.738Z,78.93
2022-08-07T04:40:34.133Z,78.42
2022-08-07T04:45:52.119Z,78.22
2022-08-07T04:50:35.022Z,77.10
2022-08-07T04:58:10.042Z,77.10
2022-08-07T05:00:35.233Z,77.20
2022-08-07T05:05:52.816Z,76.90
2022-08-07T05:10:35.043Z,76.79
2022-08-07T05:15:33.749Z,76.39
2022-08-07T05:20:33.698Z,74.15
2022-08-07T05:25:36.623Z,70.17
2022-08-07T05:30:34.602Z,67.22
2022-08-07T05:35:42.137Z,55.30
2022-08-07T05:40:33.583Z,53.16
2022-08-07T05:45:47.455Z,52.86
2022-08-07T05:50:34.373Z,52.45
2022-08-07T05:56:03.566Z,51.64
2022-08-07T06:00:34.260Z,51.84
2022-08-07T06:05:33.211Z,51.84
2022-08-07T06:10:33.263Z,51.03
2022-08-07T06:15:38.507Z,51.53
2022-08-07T06:20:50.835Z,51.94
2022-08-07T06:25:34.896Z,52.76
2022-08-07T06:30:37.553Z,55.51
2022-08-07T06:35:45.628Z,53.16
2022-08-07T06:40:35.192Z,51.74
2022-08-07T06:45:32.788Z,52.66
2022-08-07T06:50:32.734Z,53.27
2022-08-07T06:56:00.489Z,53.67
2022-08-07T07:00:33.631Z,55.10
2022-08-07T07:06:04.707Z,56.52
2022-08-07T07:10:33.526Z,56.12
2022-08-07T07:15:35.901Z,56.63
2022-08-07T07:20:32.417Z,57.65
2022-08-07T07:26:34.278Z,57.54
2022-08-07T07:30:38.721Z,58.67
2022-08-07T07:35:33.536Z,60.80
2022-08-07T07:40:32.198Z,63.15
2022-08-07T07:46:39.984Z,64.87
2022-08-07T07:50:39.008Z,66.30
2022-08-07T07:55:37.563Z,67.63
2022-08-07T08:00:34.159Z,69.15
2022-08-07T08:05:42.910Z,70.38
2022-08-07T08:10:38.227Z,70.68
2022-08-07T08:15:57.931Z,71.70
2022-08-07T08:20:32.852Z,71.91
2022-08-07T08:25:42.765Z,72.52
2022-08-07T08:30:34.395Z,72.21
2022-08-07T08:35:39.533Z,72.62
2022-08-07T08:40:32.652Z,72.82
2022-08-07T08:45:41.867Z,73.02
2022-08-07T08:50:39.070Z,72.72
2022-08-07T08:55:54.648Z,72.72
2022-08-07T09:00:32.365Z,72.92
2022-08-07T09:05:36.745Z,72.72
2022-08-07T09:10:32.248Z,72.82
2022-08-07T09:16:24.319Z,72.82
2022-08-07T09:20:35.272Z,73.02
2022-08-07T09:25:31.086Z,72.52
2022-08-07T09:30:31.048Z,72.21
2022-08-07T09:36:04.387Z,71.80
2022-08-07T09:40:32.045Z,71.91
2022-08-07T09:47:26.191Z,71.70
2022-08-07T09:50:31.836Z,70.89
2022-08-07T09:56:02.472Z,70.17
2022-08-07T10:00:31.993Z,70.28
2022-08-07T10:05:59.566Z,70.07
2022-08-07T10:10:48.291Z,69.87
2022-08-07T10:15:37.888Z,69.76
2022-08-07T10:20:31.779Z,69.46
2022-08-07T10:25:32.881Z,69.67
2022-08-07T10:30:31.422Z,69.46
2022-08-07T10:35:55.614Z,69.76
2022-08-07T10:40:31.341Z,69.97
2022-08-07T10:45:57.185Z,69.87
2022-08-07T10:50:31.199Z,69.46
2022-08-07T10:55:38.138Z,69.46
2022-08-07T11:00:39.453Z,69.46
2022-08-07T11:05:35.931Z,69.15
2022-08-07T11:10:30.993Z,69.76
2022-08-07T11:15:31.937Z,69.67
2022-08-07T11:20:29.877Z,69.06
2022-08-07T11:25:29.823Z,69.06
2022-08-07T11:30:41.775Z,69.15
2022-08-07T11:35:30.700Z,69.87
2022-08-07T11:40:29.737Z,69.15
2022-08-07T11:45:35.986Z,68.75
2022-08-07T11:50:33.236Z,68.95
2022-08-07T11:56:12.012Z,68.95
2022-08-07T12:00:30.451Z,69.26
2022-08-07T12:05:41.730Z,69.67
2022-08-07T12:10:30.410Z,70.07
2022-08-07T12:15:35.631Z,69.76
2022-08-07T12:20:32.470Z,69.67
2022-08-07T12:26:03.215Z,69.67
2022-08-07T12:30:30.137Z,69.46
2022-08-07T12:35:29.304Z,69.56
2022-08-07T12:40:47.348Z,69.76
2022-08-07T12:45:29.980Z,69.46
2022-08-07T12:50:38.161Z,69.76
2022-08-07T12:55:41.139Z,69.56
2022-08-07T13:00:32.569Z,69.76
2022-08-07T13:06:03.676Z,69.87
2022-08-07T13:10:37.861Z,69.36
2022-08-07T13:15:29.404Z,69.46
2022-08-07T13:20:29.095Z,69.67
2022-08-07T13:25:29.629Z,69.76
2022-08-07T13:30:40.386Z,69.46
2022-08-07T13:35:59.907Z,69.46
2022-08-07T13:40:35.712Z,69.56
2022-08-07T13:46:11.254Z,69.36
2022-08-07T13:50:33.290Z,69.67
2022-08-07T13:55:28.207Z,69.76
2022-08-07T14:00:29.168Z,69.46
2022-08-07T14:05:28.942Z,69.67
2022-08-07T14:10:31.521Z,69.56
2022-08-07T14:15:28.009Z,69.56
2022-08-07T14:20:39.814Z,69.67
2022-08-07T14:25:29.392Z,69.76
2022-08-07T14:30:33.146Z,69.76
2022-08-07T14:35:45.349Z,69.56
2022-08-07T14:40:32.254Z,70.38
2022-08-07T14:45:28.859Z,69.56
2022-08-07T14:50:28.831Z,69.67
2022-08-07T14:55:27.572Z,69.67
2022-08-07T15:05:30.183Z,69.76
2022-08-07T15:10:30.156Z,70.07
2022-08-07T15:15:27.368Z,70.07
2022-08-07T15:20:34.138Z,69.56
2022-08-07T15:25:36.952Z,69.97
2022-08-07T15:30:28.210Z,70.17
2022-08-07T15:40:34.442Z,70.07
2022-08-07T15:45:56.340Z,70.17
2022-08-07T15:51:01.179Z,69.87
2022-08-07T15:56:01.975Z,70.07
2022-08-07T16:00:33.816Z,70.07
2022-08-07T16:05:31.190Z,70.28
2022-08-07T16:10:26.786Z,70.17
2022-08-07T16:15:56.339Z,70.28
2022-08-07T16:20:33.881Z,70.38
2022-08-07T16:25:54.692Z,70.58
2022-08-07T16:30:32.022Z,70.58
2022-08-07T16:35:59.394Z,70.78
2022-08-07T16:40:28.628Z,70.78
2022-08-07T16:46:21.133Z,71.30
2022-08-07T16:50:38.939Z,71.60
2022-08-07T16:55:27.299Z,72.01
2022-08-07T17:00:30.101Z,71.91
2022-08-07T17:06:19.636Z,72.21
2022-08-07T17:10:32.206Z,72.72
2022-08-07T17:15:43.575Z,72.52
2022-08-07T17:20:30.089Z,72.41
2022-08-07T17:25:47.343Z,72.52
2022-08-07T17:30:27.317Z,72.21
2022-08-07T17:35:51.058Z,73.02
2022-08-07T17:40:30.564Z,72.52
2022-08-07T17:45:25.764Z,72.52
2022-08-07T17:50:30.484Z,72.62
2022-08-07T17:55:55.795Z,72.72
2022-08-07T18:00:27.555Z,72.41
2022-08-07T18:05:26.551Z,72.62
2022-08-07T18:10:32.552Z,73.43
2022-08-07T18:15:32.600Z,73.54
2022-08-07T18:21:06.521Z,73.54
2022-08-07T18:25:40.723Z,73.43
2022-08-07T18:30:31.296Z,73.43
2022-08-07T18:35:26.226Z,73.64
2022-08-07T18:40:43.998Z,73.33
2022-08-07T18:45:40.101Z,73.33
2022-08-07T18:50:39.523Z,73.64
2022-08-07T18:55:40.135Z,73.13
2022-08-07T19:00:33.046Z,73.54
2022-08-07T19:05:25.038Z,73.43
2022-08-07T19:10:31.322Z,73.33
2022-08-07T19:16:02.656Z,73.54
2022-08-07T19:20:30.003Z,73.84
2022-08-07T19:26:23.074Z,73.64
2022-08-07T19:31:00.137Z,73.64
2022-08-07T19:35:25.563Z,73.64
2022-08-07T19:40:31.135Z,73.43
2022-08-07T19:45:53.076Z,73.43
2022-08-07T19:50:43.962Z,73.33
2022-08-07T19:55:25.360Z,73.43
2022-08-07T20:00:28.353Z,73.02
2022-08-07T20:05:24.260Z,73.23
2022-08-07T20:10:36.867Z,73.43
2022-08-07T20:15:32.791Z,72.52
2022-08-07T20:20:26.399Z,72.82
2022-08-07T20:25:24.021Z,72.72
2022-08-07T20:30:23.976Z,72.82
2022-08-07T20:35:27.143Z,72.82
2022-08-07T20:40:32.298Z,72.92
2022-08-07T20:45:33.298Z,72.92
2022-08-07T20:50:24.754Z,72.82
2022-08-07T20:55:24.439Z,72.92
2022-08-07T21:00:23.639Z,73.02
2022-08-07T21:05:42.732Z,73.02
2022-08-07T21:10:25.134Z,72.92
2022-08-07T21:15:58.541Z,72.31
2022-08-07T21:20:26.694Z,72.82
2022-08-07T21:25:24.397Z,72.62
2022-08-07T21:30:23.683Z,72.21
2022-08-07T21:35:34.657Z,72.31
2022-08-07T21:40:24.245Z,72.41
2022-08-07T21:46:03.230Z,72.31
2022-08-07T21:50:24.089Z,72.21
2022-08-07T21:55:28.314Z,72.21
2022-08-07T22:00:25.112Z,72.31
2022-08-07T22:05:45.877Z,72.41
2022-08-07T22:10:24.716Z,72.41
2022-08-07T22:16:39.458Z,72.41
2022-08-07T22:20:24.019Z,72.41
2022-08-07T22:25:26.589Z,72.52
2022-08-07T22:30:26.574Z,72.52
2022-08-07T22:35:23.171Z,72.52
2022-08-07T22:40:22.536Z,72.62
2022-08-07T22:46:21.971Z,72.41
2022-08-07T22:50:29.025Z,72.41
2022-08-07T22:55:23.279Z,72.41
2022-08-07T23:00:28.602Z,71.91
2022-08-07T23:06:08.270Z,72.11
2022-08-07T23:10:38.183Z,72.01
2022-08-07T23:16:06.758Z,71.91
2022-08-07T23:20:51.258Z,72.41
2022-08-07T23:25:23.043Z,72.11
